Tahsis, Canada
Current Conditions -  °F | °C
As of 8:00 PM on Saturday 25 Oct 2014 (Local Time) from CYZT Reporting Station
Overcast Overcast  
Wind Chill: 43°   Ceiling: 3000
Heat Index: 46°   Visibility: 15mi
Dew Point: 45°   Wind: 7mph
Humidity: 93%   Direction: 260°W
Pressure: 29.47"   Gusts: NA
Location:  49.92°N, 126.67°W
Report Text: CYZT 260300Z 26006KT 15SM BKN030 OVC041 08/07 A2947 RMK SC5SC3 SLP980
Loading
Personal Weather Stations






























Interactive Weather Map
Tropical Storm Tracking
New forecast layout! Learn more

10-Day Weather Forecast

Advertisements
Track Severe Weather on mobile